createdAt,value
2024-02-05T00:00:03.828Z,73.64
2024-02-05T00:05:35.033Z,73.93
2024-02-05T00:10:38.124Z,74.12
2024-02-05T00:15:41.343Z,74.29
2024-02-05T00:20:44.645Z,74.46
2024-02-05T00:25:48.244Z,74.48
2024-02-05T00:30:51.891Z,74.27
2024-02-05T00:35:54.939Z,74.10
2024-02-05T00:40:58.128Z,74.21
2024-02-05T00:46:01.570Z,74.29
2024-02-05T00:51:05.291Z,74.64
2024-02-05T00:56:08.445Z,74.92
2024-02-05T01:01:12.667Z,74.90
2024-02-05T01:06:16.229Z,74.95
2024-02-05T01:11:19.551Z,75.08
2024-02-05T01:16:22.776Z,75.26
2024-02-05T01:21:25.951Z,75.44
2024-02-05T01:26:28.992Z,75.27
2024-02-05T01:31:31.982Z,75.25
2024-02-05T01:36:35.514Z,75.05
2024-02-05T01:41:38.731Z,74.75
2024-02-05T01:46:41.853Z,74.63
2024-02-05T01:51:48.509Z,74.51
2024-02-05T01:56:54.758Z,74.92
2024-02-05T02:01:58.039Z,75.35
2024-02-05T02:07:05.169Z,75.32
2024-02-05T02:12:08.887Z,75.44
2024-02-05T02:17:11.916Z,75.72
2024-02-05T02:22:42.787Z,75.75
2024-02-05T02:27:46.707Z,75.40
2024-02-05T02:33:24.713Z,75.29
2024-02-05T02:38:33.823Z,75.47
2024-02-05T02:43:48.058Z,75.48
2024-02-05T02:48:51.485Z,75.16
2024-02-05T02:53:55.011Z,75.34
2024-02-05T02:58:58.033Z,75.88
2024-02-05T03:04:01.225Z,76.19
2024-02-05T03:09:04.954Z,76.54
2024-02-05T03:14:08.062Z,76.87
2024-02-05T03:19:11.162Z,76.89
2024-02-05T03:24:14.187Z,77.02
2024-02-05T03:29:17.598Z,77.26
2024-02-05T03:34:20.937Z,77.20
2024-02-05T03:39:24.326Z,77.15
2024-02-05T03:44:27.485Z,77.14
2024-02-05T03:49:31.298Z,77.11
2024-02-05T03:54:35.729Z,77.22
2024-02-05T03:59:38.723Z,77.33
2024-02-05T04:04:42.700Z,77.49
2024-02-05T04:09:45.848Z,77.68
2024-02-05T04:14:48.985Z,77.50
2024-02-05T04:19:52.630Z,77.43
2024-02-05T04:24:55.784Z,77.40
2024-02-05T04:29:58.779Z,77.33
2024-02-05T04:35:02.470Z,77.43
2024-02-05T04:40:06.772Z,77.51
2024-02-05T04:45:10.400Z,77.56
2024-02-05T04:50:15.198Z,77.62
2024-02-05T04:55:18.728Z,77.80
2024-02-05T05:00:23.121Z,78.12
2024-02-05T05:05:26.831Z,78.53
2024-02-05T05:10:30.072Z,79.31
2024-02-05T05:15:37.492Z,79.67
2024-02-05T05:20:42.891Z,80.02
2024-02-05T05:25:45.954Z,80.57
2024-02-05T05:30:49.047Z,81.38
2024-02-05T05:35:52.306Z,81.83
2024-02-05T05:40:55.971Z,81.97
2024-02-05T05:45:59.122Z,82.05
2024-02-05T05:51:02.788Z,82.03
2024-02-05T05:56:06.508Z,82.00
2024-02-05T06:01:10.022Z,81.91
2024-02-05T06:06:13.484Z,82.00
2024-02-05T06:11:16.512Z,82.29
2024-02-05T06:16:19.774Z,82.23
2024-02-05T06:21:22.924Z,82.33
2024-02-05T06:26:26.120Z,82.59
2024-02-05T06:31:29.421Z,82.46
2024-02-05T06:36:32.625Z,82.10
2024-02-05T06:41:35.651Z,81.91
2024-02-05T06:46:38.831Z,81.79
2024-02-05T06:51:42.639Z,81.83
2024-02-05T06:56:48.330Z,81.90
2024-02-05T07:01:52.767Z,82.08
2024-02-05T07:06:56.044Z,82.24
2024-02-05T07:11:59.132Z,82.20
2024-02-05T07:17:02.248Z,82.28
2024-02-05T07:22:05.829Z,82.25
2024-02-05T07:27:09.089Z,82.39
2024-02-05T07:32:12.357Z,82.34
2024-02-05T07:37:15.596Z,82.18
2024-02-05T07:42:19.212Z,82.03
2024-02-05T07:47:22.331Z,82.17
2024-02-05T07:52:27.491Z,82.15
2024-02-05T07:57:30.571Z,82.60
2024-02-05T08:02:34.446Z,82.16
2024-02-05T08:07:37.946Z,80.95
2024-02-05T08:12:41.598Z,78.35
2024-02-05T08:17:44.776Z,78.13
2024-02-05T08:22:47.919Z,77.09
2024-02-05T08:27:51.257Z,77.69
2024-02-05T08:32:54.891Z,78.41
2024-02-05T08:37:58.237Z,78.20
2024-02-05T08:43:02.007Z,78.58
2024-02-05T08:48:07.659Z,78.68
2024-02-05T08:53:11.129Z,78.88
2024-02-05T08:58:14.638Z,78.79
2024-02-05T09:03:18.400Z,78.60
2024-02-05T09:08:21.941Z,78.83
2024-02-05T09:13:25.778Z,78.53
2024-02-05T09:18:29.223Z,78.36
2024-02-05T09:23:34.570Z,78.45
2024-02-05T09:28:37.800Z,78.69
2024-02-05T09:33:42.095Z,78.82
2024-02-05T09:38:45.274Z,78.89
2024-02-05T09:43:51.695Z,78.70
2024-02-05T09:48:57.623Z,78.95
2024-02-05T09:54:10.985Z,78.78
2024-02-05T09:59:21.150Z,78.79
2024-02-05T10:04:26.434Z,78.77
2024-02-05T10:09:31.018Z,78.80
2024-02-05T10:14:34.708Z,78.70
2024-02-05T10:19:38.430Z,78.90
2024-02-05T10:24:42.478Z,79.32
2024-02-05T10:29:46.066Z,79.21
2024-02-05T10:34:53.090Z,79.25
2024-02-05T10:40:11.890Z,79.32
2024-02-05T10:45:15.458Z,79.58
2024-02-05T10:50:18.715Z,80.34
2024-02-05T10:55:22.476Z,81.23
2024-02-05T11:00:25.733Z,81.91
2024-02-05T11:05:29.296Z,82.23
2024-02-05T11:10:34.460Z,82.25
2024-02-05T11:15:40.107Z,82.12
2024-02-05T11:20:48.913Z,82.17
2024-02-05T11:25:53.424Z,82.43
2024-02-05T11:31:10.411Z,82.50
2024-02-05T11:36:14.489Z,82.48
2024-02-05T11:41:23.301Z,82.62
2024-02-05T11:46:26.601Z,82.73
2024-02-05T11:51:32.765Z,82.98
2024-02-05T11:56:40.203Z,83.10
2024-02-05T12:01:44.930Z,82.99
2024-02-05T12:06:48.972Z,83.31
2024-02-05T12:11:52.519Z,83.35
2024-02-05T12:16:55.624Z,83.38
2024-02-05T12:21:59.167Z,83.35
2024-02-05T12:27:02.749Z,83.24
2024-02-05T12:32:09.500Z,83.41
2024-02-05T12:37:13.070Z,83.41
2024-02-05T12:42:19.161Z,83.50
2024-02-05T12:47:23.556Z,83.51
2024-02-05T12:52:27.287Z,83.48
2024-02-05T12:57:31.426Z,83.00
2024-02-05T13:02:35.621Z,82.84
2024-02-05T13:07:39.685Z,82.77
2024-02-05T13:12:42.988Z,83.16
2024-02-05T13:17:47.255Z,83.09
2024-02-05T13:22:50.444Z,82.84
2024-02-05T13:27:53.671Z,82.75
2024-02-05T13:32:57.069Z,82.72
2024-02-05T13:38:01.931Z,82.71
2024-02-05T13:43:07.333Z,82.60
2024-02-05T13:48:11.142Z,82.74
2024-02-05T13:53:14.344Z,82.50
2024-02-05T13:58:17.684Z,82.47
2024-02-05T14:03:20.838Z,82.60
2024-02-05T14:08:26.302Z,82.31
2024-02-05T14:13:29.513Z,82.32
2024-02-05T14:18:32.762Z,82.35
2024-02-05T14:23:36.937Z,82.19
2024-02-05T14:28:40.180Z,82.41
2024-02-05T14:33:46.034Z,82.09
2024-02-05T14:38:50.371Z,81.67
2024-02-05T14:43:53.493Z,81.26
2024-02-05T14:48:56.780Z,81.04
2024-02-05T14:54:00.622Z,81.09
2024-02-05T14:59:05.518Z,80.85
2024-02-05T15:04:09.243Z,80.80
2024-02-05T15:09:12.683Z,80.39
2024-02-05T15:14:18.627Z,80.50
2024-02-05T15:19:22.118Z,80.72
2024-02-05T15:24:25.568Z,80.55
2024-02-05T15:29:29.305Z,80.41
2024-02-05T15:34:35.013Z,80.08
2024-02-05T15:39:38.126Z,79.92
2024-02-05T15:44:41.421Z,79.97
2024-02-05T15:49:44.762Z,79.64
2024-02-05T15:54:48.117Z,79.78
2024-02-05T15:59:51.400Z,79.93
2024-02-05T16:04:54.452Z,80.17
2024-02-05T16:09:58.192Z,80.36
2024-02-05T16:15:01.278Z,80.31
2024-02-05T16:20:06.267Z,80.02
2024-02-05T16:25:09.735Z,80.26
2024-02-05T16:30:13.849Z,80.68
2024-02-05T16:35:17.291Z,80.86
2024-02-05T16:40:24.891Z,81.09
2024-02-05T16:45:28.052Z,81.28
2024-02-05T16:50:31.437Z,81.39
2024-02-05T16:55:34.966Z,81.44
2024-02-05T17:00:38.271Z,81.14
2024-02-05T17:05:42.060Z,80.68
2024-02-05T17:10:45.531Z,79.79
2024-02-05T17:15:50.254Z,79.19
2024-02-05T17:20:53.792Z,78.40
2024-02-05T17:25:57.076Z,77.28
2024-02-05T17:31:00.278Z,76.99
2024-02-05T17:36:05.942Z,75.96
2024-02-05T17:41:18.051Z,75.83
2024-02-05T17:46:21.325Z,74.88
2024-02-05T17:51:24.407Z,74.30
2024-02-05T17:56:27.512Z,73.72
2024-02-05T18:01:30.930Z,72.87
2024-02-05T18:06:34.281Z,72.29
2024-02-05T18:11:37.629Z,71.77
2024-02-05T18:16:42.495Z,71.05
2024-02-05T18:21:45.879Z,69.06
2024-02-05T18:26:49.174Z,68.58
2024-02-05T18:31:53.090Z,68.15
2024-02-05T18:36:56.276Z,67.23
2024-02-05T18:42:00.341Z,66.57
2024-02-05T18:47:04.441Z,65.81
2024-02-05T18:52:10.099Z,66.05
2024-02-05T18:57:16.816Z,66.33
2024-02-05T19:02:24.888Z,65.83
2024-02-05T19:07:28.324Z,65.98
2024-02-05T19:12:31.783Z,65.96
2024-02-05T19:17:35.297Z,65.92
2024-02-05T19:22:38.700Z,65.94
2024-02-05T19:27:41.964Z,65.58
2024-02-05T19:32:45.278Z,65.26
2024-02-05T19:37:49.509Z,65.10
2024-02-05T19:42:53.103Z,65.21
2024-02-05T19:47:56.401Z,65.72
2024-02-05T19:53:00.095Z,65.39
2024-02-05T19:58:03.639Z,64.98
2024-02-05T20:03:08.889Z,64.59
2024-02-05T20:08:12.413Z,64.40
2024-02-05T20:13:17.123Z,63.81
2024-02-05T20:18:20.550Z,63.56
2024-02-05T20:23:23.848Z,63.99
2024-02-05T20:28:26.985Z,63.25
2024-02-05T20:33:30.334Z,63.15
2024-02-05T20:38:33.408Z,62.97
2024-02-05T20:43:36.535Z,63.08
2024-02-05T20:48:40.255Z,63.07
2024-02-05T20:53:45.012Z,62.76
2024-02-05T20:58:48.105Z,62.84
2024-02-05T21:03:51.279Z,62.96
2024-02-05T21:08:54.909Z,62.64
2024-02-05T21:13:58.205Z,62.40
2024-02-05T21:19:01.356Z,62.25
2024-02-05T21:24:05.320Z,62.15
2024-02-05T21:29:14.314Z,62.10
2024-02-05T21:34:17.568Z,61.79
2024-02-05T21:39:20.823Z,61.89
2024-02-05T21:44:26.137Z,61.55
2024-02-05T21:49:29.860Z,61.36
2024-02-05T21:54:33.122Z,61.32
2024-02-05T21:59:36.297Z,61.04
2024-02-05T22:04:39.795Z,61.17
2024-02-05T22:09:45.429Z,61.00
2024-02-05T22:14:50.375Z,60.89
2024-02-05T22:19:53.571Z,60.75
2024-02-05T22:24:57.040Z,60.69
2024-02-05T22:30:01.371Z,60.75
2024-02-05T22:35:05.171Z,60.42
2024-02-05T22:40:11.210Z,60.43
2024-02-05T22:45:15.891Z,60.20
2024-02-05T22:50:19.495Z,60.06
2024-02-05T22:55:23.012Z,60.05
2024-02-05T23:00:26.162Z,60.05
2024-02-05T23:05:29.526Z,59.99
2024-02-05T23:10:33.057Z,59.77
2024-02-05T23:15:36.527Z,59.76
2024-02-05T23:20:39.787Z,59.70
2024-02-05T23:25:43.192Z,59.71
2024-02-05T23:30:46.298Z,59.43
2024-02-05T23:35:50.123Z,59.24
2024-02-05T23:40:53.376Z,58.81
2024-02-05T23:45:56.525Z,58.72
2024-02-05T23:50:59.775Z,58.43
2024-02-05T23:56:03.096Z,58.12
